Time;durP1;ratioP1;P1;durP2;ratioP2;P2;SDS_P1;SDS_P2;PMS_P1;PMS_P2;Temp;Humidity;BMP_temperature;BMP_pressure;BME280_temperature;BME280_humidity;BME280_pressure;Samples;Min_cycle;Max_cycle;Signal;HPM_P1;HPM_P2
2022/07/05 00:02:16;;;;;;;1.35;0.30;;;14.30;99.90;;;;;;5076267;28;20040;-54
2022/07/05 00:04:42;;;;;;;3.60;0.63;;;14.20;99.90;;;;;;5071768;28;20115;-53
2022/07/05 00:07:20;;;;;;;1.30;0.95;;;14.20;99.90;;;;;;5084991;28;20046;-56
2022/07/05 00:09:54;;;;;;;1.15;1.05;;;14.20;99.90;;;;;;5086931;28;20051;-52
2022/07/05 00:12:22;;;;;;;4.97;1.58;;;14.30;99.90;;;;;;5077787;28;20044;-55
2022/07/05 00:14:48;;;;;;;1.33;1.20;;;14.20;99.90;;;;;;5084758;28;20052;-54
2022/07/05 00:17:14;;;;;;;;;;;14.20;99.90;;;;;;5083700;28;20036;-53
2022/07/05 00:19:40;;;;;;;0.63;0.43;;;14.20;99.90;;;;;;5088427;28;20305;-53
2022/07/05 00:22:06;;;;;;;0.77;0.50;;;14.20;99.90;;;;;;5083306;28;20502;-52
2022/07/05 00:24:31;;;;;;;0.43;0.40;;;14.10;99.90;;;;;;5082108;28;20043;-55
2022/07/05 00:26:57;;;;;;;1.67;0.60;;;14.10;99.90;;;;;;5087928;28;20058;-52
2022/07/05 00:29:23;;;;;;;1.08;0.98;;;14.00;99.90;;;;;;5081331;28;20078;-52
2022/07/05 00:31:49;;;;;;;2.60;0.60;;;13.90;99.90;;;;;;5088967;28;20063;-54
2022/07/05 00:34:15;;;;;;;0.63;0.57;;;13.90;99.90;;;;;;5077611;28;20501;-54
2022/07/05 00:36:41;;;;;;;1.50;1.40;;;13.80;99.90;;;;;;5069770;28;20040;-52
2022/07/05 00:39:07;;;;;;;2.78;1.00;;;13.80;99.90;;;;;;5078896;28;20413;-49
2022/07/05 00:41:33;;;;;;;4.55;1.90;;;13.70;99.90;;;;;;5074874;28;20063;-52
2022/07/05 00:44:00;;;;;;;;;;;13.70;99.90;;;;;;5075324;28;20032;-55
2022/07/05 00:46:26;;;;;;;1.60;1.50;;;13.70;99.90;;;;;;5089522;28;20015;-55
2022/07/05 00:48:52;;;;;;;1.92;1.30;;;13.70;99.90;;;;;;5076363;28;20508;-49
2022/07/05 00:51:18;;;;;;;1.42;1.20;;;13.70;99.90;;;;;;5069279;28;20033;-53
2022/07/05 00:53:44;;;;;;;;;;;13.70;99.90;;;;;;5076560;28;20111;-52
2022/07/05 00:56:11;;;;;;;0.90;0.50;;;13.70;99.90;;;;;;5081731;28;19959;-54
2022/07/05 00:58:36;;;;;;;0.70;0.55;;;13.60;99.90;;;;;;5082542;28;20437;-53
2022/07/05 01:01:04;;;;;;;1.30;0.60;;;13.60;99.90;;;;;;5074235;28;20111;-54
2022/07/05 01:03:30;;;;;;;1.25;1.10;;;13.50;99.90;;;;;;5072474;28;20036;-53
2022/07/05 01:05:55;;;;;;;1.80;1.10;;;13.40;99.90;;;;;;5077856;28;20040;-54
2022/07/05 01:08:23;;;;;;;2.42;1.33;;;13.40;99.90;;;;;;5091416;28;20463;-50
2022/07/05 01:10:50;;;;;;;3.30;1.67;;;13.40;99.90;;;;;;5081281;28;20048;-51
2022/07/05 01:13:16;;;;;;;1.58;1.48;;;13.40;99.90;;;;;;5091846;28;20101;-50
2022/07/05 01:15:42;;;;;;;0.73;0.65;;;13.40;99.90;;;;;;5084214;28;20477;-55
2022/07/05 01:18:09;;;;;;;3.45;1.30;;;13.30;99.90;;;;;;5092663;28;20115;-51
2022/07/05 01:20:35;;;;;;;1.60;0.88;;;13.30;99.90;;;;;;5091351;28;20449;-51
2022/07/05 01:23:02;;;;;;;2.67;1.55;;;13.20;99.90;;;;;;5079546;28;20097;-55
2022/07/05 01:25:29;;;;;;;1.35;1.25;;;13.20;99.90;;;;;;5082168;28;20040;-52
2022/07/05 01:27:56;;;;;;;2.90;0.80;;;13.20;99.90;;;;;;5089671;28;20071;-53
2022/07/05 01:30:22;;;;;;;0.70;0.70;;;13.20;99.90;;;;;;5078918;28;20168;-52
2022/07/05 01:32:48;;;;;;;2.67;0.77;;;13.10;99.90;;;;;;5071042;28;20049;-51
2022/07/05 01:35:20;;;;;;;0.90;0.90;;;13.10;99.90;;;;;;5083632;28;20087;-52
2022/07/05 01:37:47;;;;;;;3.63;1.05;;;13.10;99.90;;;;;;5072352;28;20393;-53
2022/07/05 01:40:13;;;;;;;2.45;1.42;;;13.10;99.90;;;;;;5081352;28;20035;-53
2022/07/05 01:42:38;;;;;;;7.18;1.50;;;13.10;99.90;;;;;;5090235;28;20481;-52
2022/07/05 01:45:05;;;;;;;1.13;1.02;;;13.10;99.90;;;;;;5081931;28;20726;-52
2022/07/05 01:47:35;;;;;;;1.13;0.90;;;13.10;99.90;;;;;;5072013;28;20154;-51
2022/07/05 01:50:04;;;;;;;1.25;1.00;;;13.00;99.90;;;;;;5082868;28;20437;-52
2022/07/05 01:52:31;;;;;;;0.88;0.40;;;13.00;99.90;;;;;;5083615;28;20051;-54
2022/07/05 01:54:58;;;;;;;0.40;0.30;;;12.90;99.90;;;;;;5073466;28;20068;-52
2022/07/05 01:57:24;;;;;;;2.55;0.50;;;12.90;99.90;;;;;;5071688;28;20244;-52
2022/07/05 01:59:49;;;;;;;0.90;0.85;;;12.90;99.90;;;;;;5079088;28;20040;-55
2022/07/05 02:02:15;;;;;;;1.27;1.17;;;12.90;99.90;;;;;;5073608;28;20044;-50
2022/07/05 02:04:41;;;;;;;2.10;1.85;;;12.90;99.90;;;;;;5079832;28;20390;-50
2022/07/05 02:07:07;;;;;;;4.03;1.23;;;12.90;99.90;;;;;;5088459;28;20075;-50
2022/07/05 02:09:33;;;;;;;1.67;0.80;;;12.90;99.90;;;;;;5072917;28;20494;-51
2022/07/05 02:12:00;;;;;;;0.85;0.85;;;12.90;99.90;;;;;;5087619;28;20493;-50
2022/07/05 02:14:25;;;;;;;;;;;12.80;99.90;;;;;;5087587;28;20036;-53
2022/07/05 02:16:51;;;;;;;0.63;0.60;;;12.80;99.90;;;;;;5075537;28;20316;-53
2022/07/05 02:19:16;;;;;;;1.30;0.77;;;12.70;99.90;;;;;;5074849;28;20036;-52
2022/07/05 02:21:42;;;;;;;3.30;1.07;;;12.70;99.90;;;;;;5074178;28;20286;-52
2022/07/05 02:24:08;;;;;;;1.70;1.02;;;12.60;99.90;;;;;;5075419;28;20286;-52
2022/07/05 02:26:34;;;;;;;;;;;12.60;99.90;;;;;;5072501;28;20045;-53
2022/07/05 02:29:01;;;;;;;1.80;1.70;;;12.60;99.90;;;;;;5072897;28;20457;-52
2022/07/05 02:31:26;;;;;;;1.92;1.60;;;12.60;99.90;;;;;;5089957;28;20032;-54
2022/07/05 02:33:52;;;;;;;2.47;2.27;;;12.60;99.90;;;;;;5090127;28;20389;-51
2022/07/05 02:36:18;;;;;;;2.88;1.60;;;12.60;99.90;;;;;;5071354;28;20037;-50
2022/07/05 02:38:43;;;;;;;3.10;1.90;;;12.60;99.90;;;;;;5087135;28;20443;-51
2022/07/05 02:41:10;;;;;;;1.48;1.38;;;12.50;99.90;;;;;;5076191;28;20485;-51
2022/07/05 02:43:37;;;;;;;2.40;2.20;;;12.50;99.90;;;;;;5079834;28;20039;-50
2022/07/05 02:46:03;;;;;;;4.93;2.13;;;12.50;99.90;;;;;;5084896;28;20046;-51
2022/07/05 02:48:28;;;;;;;;;;;12.50;99.90;;;;;;5077178;28;20033;-54
2022/07/05 02:50:54;;;;;;;1.63;1.05;;;12.50;99.90;;;;;;5075367;28;19973;-50
2022/07/05 02:53:20;;;;;;;0.93;0.93;;;12.50;99.90;;;;;;5090534;28;20079;-51
2022/07/05 02:55:45;;;;;;;1.40;1.30;;;12.50;99.90;;;;;;5081654;28;20040;-56
2022/07/05 02:58:11;;;;;;;2.80;1.77;;;12.40;99.90;;;;;;5077162;28;20448;-54
2022/07/05 03:00:36;;;;;;;1.73;1.25;;;12.30;99.90;;;;;;5085492;28;20347;-52
2022/07/05 03:03:02;;;;;;;2.78;1.38;;;12.30;99.90;;;;;;5089956;28;20056;-52
2022/07/05 03:05:28;;;;;;;1.70;1.40;;;12.30;99.90;;;;;;5088785;28;20036;-54
2022/07/05 03:07:54;;;;;;;0.70;0.70;;;12.40;99.90;;;;;;5089647;28;20124;-54
2022/07/05 03:10:19;;;;;;;1.70;1.60;;;12.30;99.90;;;;;;5084015;28;20122;-51
2022/07/05 03:12:45;;;;;;;0.60;0.50;;;12.30;99.90;;;;;;5077406;28;20186;-58
2022/07/05 03:15:10;;;;;;;1.83;1.20;;;12.30;99.90;;;;;;5088052;28;20032;-53
2022/07/05 03:17:36;;;;;;;3.13;0.90;;;12.20;99.90;;;;;;5070587;28;20405;-51
2022/07/05 03:20:02;;;;;;;2.30;1.95;;;12.10;99.90;;;;;;5079823;28;20062;-49
2022/07/05 03:22:28;;;;;;;4.80;2.30;;;12.10;99.90;;;;;;5079037;28;20040;-52
2022/07/05 03:24:53;;;;;;;4.75;2.42;;;12.00;99.90;;;;;;5073829;28;20050;-53
2022/07/05 03:27:19;;;;;;;3.33;3.03;;;12.10;99.90;;;;;;5071528;28;20040;-53
2022/07/05 03:29:44;;;;;;;3.60;3.30;;;12.10;99.90;;;;;;5087644;28;20032;-53
2022/07/05 03:32:10;;;;;;;4.30;3.00;;;12.10;99.90;;;;;;5082823;28;20068;-53
2022/07/05 03:34:35;;;;;;;2.50;2.30;;;12.20;99.90;;;;;;5087107;28;20036;-49
2022/07/05 03:37:01;;;;;;;2.60;2.40;;;12.20;99.90;;;;;;5073950;28;20042;-54
2022/07/05 03:39:27;;;;;;;1.90;1.80;;;12.10;99.90;;;;;;5086011;28;20505;-54
2022/07/05 03:41:53;;;;;;;3.90;3.60;;;12.10;99.90;;;;;;5075441;28;20044;-51
2022/07/05 03:44:18;;;;;;;4.00;3.70;;;12.10;99.90;;;;;;5073667;28;20508;-52
2022/07/05 03:46:44;;;;;;;7.75;4.55;;;12.20;99.90;;;;;;5081166;28;20647;-47
2022/07/05 03:49:09;;;;;;;3.50;3.20;;;12.20;99.90;;;;;;5088407;28;20458;-53
2022/07/05 03:51:35;;;;;;;4.45;4.05;;;12.20;99.90;;;;;;5080024;28;20044;-49
2022/07/05 03:54:01;;;;;;;5.27;4.30;;;12.20;99.90;;;;;;5087594;28;20029;-53
2022/07/05 03:56:26;;;;;;;6.63;5.03;;;12.20;99.90;;;;;;5081003;28;20316;-52
2022/07/05 03:58:52;;;;;;;4.20;3.80;;;12.30;99.90;;;;;;5072421;28;20083;-55
2022/07/05 04:01:18;;;;;;;5.35;4.85;;;12.30;99.90;;;;;;5089181;28;20278;-51
2022/07/05 04:03:43;;;;;;;6.80;6.20;;;12.30;99.90;;;;;;5085915;28;20097;-51
2022/07/05 04:06:10;;;;;;;8.10;5.57;;;12.30;99.90;;;;;;5084217;28;20059;-55
2022/07/05 04:08:36;;;;;;;7.47;5.85;;;12.40;99.90;;;;;;5071205;28;20032;-51
2022/07/05 04:11:01;;;;;;;6.72;6.13;;;12.40;99.90;;;;;;5072937;28;20085;-55
2022/07/05 04:13:27;;;;;;;7.83;6.13;;;12.50;99.90;;;;;;5089384;28;20480;-51
2022/07/05 04:15:53;;;;;;;6.37;5.77;;;12.50;99.90;;;;;;5075199;28;20295;-51
2022/07/05 04:18:18;;;;;;;8.38;6.07;;;12.50;99.90;;;;;;5085041;28;20291;-52
2022/07/05 04:20:44;;;;;;;6.80;6.20;;;12.60;99.90;;;;;;5085691;28;20028;-51
2022/07/05 04:23:10;;;;;;;9.32;6.85;;;12.70;99.90;;;;;;5088508;28;20047;-52
2022/07/05 04:25:35;;;;;;;8.63;6.82;;;12.70;99.90;;;;;;5079472;28;20127;-52
2022/07/05 04:28:01;;;;;;;8.93;6.68;;;12.70;99.90;;;;;;5074755;28;20036;-50
2022/07/05 04:30:27;;;;;;;7.45;6.72;;;12.80;99.90;;;;;;5091911;28;20189;-51
2022/07/05 04:32:52;;;;;;;7.85;6.50;;;12.80;99.90;;;;;;5084214;28;20549;-50
2022/07/05 04:35:18;;;;;;;9.05;7.03;;;12.90;99.90;;;;;;5082650;28;20029;-51
2022/07/05 04:37:44;;;;;;;7.72;7.03;;;12.90;99.90;;;;;;5078556;28;20032;-55
2022/07/05 04:40:11;;;;;;;7.47;6.78;;;12.90;99.90;;;;;;5077026;28;20059;-46
2022/07/05 04:42:37;;;;;;;7.30;6.63;;;13.00;99.90;;;;;;5074402;28;20123;-52
2022/07/05 04:45:04;;;;;;;9.20;7.25;;;13.10;99.90;;;;;;5088851;28;20103;-49
2022/07/05 04:47:30;;;;;;;10.27;8.00;;;13.20;99.90;;;;;;5078099;28;20546;-51
2022/07/05 04:49:57;;;;;;;10.20;7.70;;;13.20;99.90;;;;;;5089432;28;20119;-51
2022/07/05 04:52:23;;;;;;;9.23;8.00;;;13.20;99.90;;;;;;5083468;28;20233;-50
2022/07/05 04:54:49;;;;;;;7.38;6.53;;;13.30;99.90;;;;;;5081664;28;20481;-53
2022/07/05 04:57:14;;;;;;;7.80;7.07;;;13.40;99.90;;;;;;5085176;28;20122;-51
2022/07/05 04:59:40;;;;;;;9.13;8.23;;;13.40;99.90;;;;;;5079511;28;20161;-52
2022/07/05 05:02:06;;;;;;;8.63;7.75;;;13.50;99.90;;;;;;5086576;28;20433;-52
2022/07/05 05:04:31;;;;;;;8.57;7.78;;;13.50;99.90;;;;;;5091165;28;20481;-52
2022/07/05 05:06:57;;;;;;;13.23;8.45;;;13.60;99.90;;;;;;5090209;28;20051;-51
2022/07/05 05:09:22;;;;;;;10.10;8.38;;;13.70;99.90;;;;;;5078066;28;20035;-48
2022/07/05 05:11:48;;;;;;;13.50;9.30;;;13.80;99.90;;;;;;5084295;28;20209;-52
2022/07/05 05:14:14;;;;;;;9.23;8.18;;;13.90;99.90;;;;;;5077594;28;20307;-56
2022/07/05 05:16:39;;;;;;;13.43;9.88;;;14.10;99.90;;;;;;5083072;28;20039;-50
2022/07/05 05:19:05;;;;;;;8.80;7.68;;;14.20;99.90;;;;;;5085833;28;20043;-54
2022/07/05 05:21:30;;;;;;;8.90;7.95;;;14.30;99.90;;;;;;5087970;28;20048;-51
2022/07/05 05:23:56;;;;;;;10.55;7.85;;;14.40;99.90;;;;;;5072004;28;20043;-54
2022/07/05 05:26:22;;;;;;;11.25;7.13;;;14.50;99.90;;;;;;5077373;28;20429;-51
2022/07/05 05:28:47;;;;;;;7.67;6.87;;;14.60;99.90;;;;;;5077005;28;20511;-51
2022/07/05 05:31:13;;;;;;;9.75;7.53;;;14.70;99.90;;;;;;5091066;28;20780;-52
2022/07/05 05:33:39;;;;;;;10.02;8.15;;;14.70;99.90;;;;;;5089447;28;20089;-50
2022/07/05 05:36:05;;;;;;;;;;;14.80;99.90;;;;;;5086834;28;20044;-50
2022/07/05 05:38:30;;;;;;;8.23;7.43;;;14.90;99.90;;;;;;5092644;28;19954;-48
2022/07/05 05:40:56;;;;;;;9.00;7.10;;;15.00;99.90;;;;;;5074111;28;20037;-51
2022/07/05 05:43:21;;;;;;;7.03;6.32;;;15.00;99.90;;;;;;5089843;28;20059;-52
2022/07/05 05:45:47;;;;;;;8.27;6.90;;;15.10;99.90;;;;;;5092577;28;20040;-48
2022/07/05 05:48:12;;;;;;;7.30;6.70;;;15.10;99.90;;;;;;5077128;28;20029;-47
2022/07/05 05:50:38;;;;;;;9.43;8.07;;;15.20;99.90;;;;;;5079102;28;20460;-49
2022/07/05 05:53:04;;;;;;;8.55;7.38;;;15.30;99.90;;;;;;5075369;28;20036;-54
2022/07/05 05:55:31;;;;;;;10.32;7.60;;;15.40;99.90;;;;;;5077912;28;20039;-51
2022/07/05 05:58:02;;;;;;;6.40;5.22;;;15.50;99.90;;;;;;5084134;28;20115;-54
2022/07/05 06:00:27;;;;;;;5.45;4.95;;;15.60;99.90;;;;;;5091886;28;20047;-50
2022/07/05 06:02:53;;;;;;;6.80;6.30;;;15.60;99.90;;;;;;5091259;28;20121;-53
2022/07/05 06:05:18;;;;;;;7.35;6.65;;;15.70;99.90;;;;;;5080946;28;20040;-54
2022/07/05 06:07:55;;;;;;;7.53;5.80;;;15.90;99.90;;;;;;5089786;28;20043;-46
2022/07/05 06:10:26;;;;;;;8.07;5.75;;;15.90;99.90;;;;;;5090584;28;20032;-49
2022/07/05 06:12:53;;;;;;;7.15;5.03;;;16.00;99.90;;;;;;5076881;28;20182;-48
2022/07/05 06:15:20;;;;;;;8.13;4.82;;;16.10;99.90;;;;;;5082717;28;20111;-53
2022/07/05 06:17:46;;;;;;;7.82;5.20;;;16.20;99.90;;;;;;5086021;28;20055;-46
2022/07/05 06:20:13;;;;;;;6.60;5.18;;;16.30;99.90;;;;;;5092270;28;20573;-50
2022/07/05 06:22:39;;;;;;;4.57;4.18;;;16.30;99.90;;;;;;5089989;28;20044;-50
2022/07/05 06:25:06;;;;;;;4.85;4.05;;;16.40;99.90;;;;;;5088824;28;20055;-56
2022/07/05 06:27:37;;;;;;;7.97;4.47;;;16.40;99.90;;;;;;5081101;28;20036;-51
2022/07/05 06:30:02;;;;;;;6.57;4.30;;;16.50;99.90;;;;;;5071568;28;20120;-46
2022/07/05 06:32:28;;;;;;;4.72;4.22;;;16.50;99.90;;;;;;5078317;28;20568;-47
2022/07/05 06:34:53;;;;;;;4.53;4.13;;;16.50;99.90;;;;;;5076625;28;20119;-49
2022/07/05 06:37:19;;;;;;;5.30;3.65;;;16.60;99.90;;;;;;5081101;28;20105;-46
2022/07/05 06:39:45;;;;;;;4.95;4.45;;;16.70;99.90;;;;;;5073773;28;20032;-46
2022/07/05 06:42:10;;;;;;;4.22;3.83;;;16.70;99.90;;;;;;5090931;28;20505;-49
2022/07/05 06:44:36;;;;;;;8.05;3.80;;;16.80;99.90;;;;;;5077018;28;20035;-47
2022/07/05 06:47:02;;;;;;;4.82;2.95;;;16.90;99.90;;;;;;5087922;28;20036;-51
2022/07/05 06:49:28;;;;;;;5.65;3.38;;;17.00;99.90;;;;;;5082542;28;20444;-53
2022/07/05 06:51:53;;;;;;;7.88;3.30;;;17.00;99.90;;;;;;5053134;28;20127;-47
2022/07/05 06:54:19;;;;;;;3.03;2.80;;;17.10;99.90;;;;;;5067123;28;20043;-51
2022/07/05 06:56:44;;;;;;;6.90;2.90;;;17.10;99.90;;;;;;5076527;28;20370;-52
2022/07/05 06:59:10;;;;;;;4.28;2.35;;;17.20;99.90;;;;;;5064468;28;20546;-54
2022/07/05 07:01:35;;;;;;;4.78;2.92;;;17.20;99.90;;;;;;5069473;28;20137;-51
2022/07/05 07:04:01;;;;;;;5.28;3.08;;;17.20;99.90;;;;;;5070554;28;20044;-51
2022/07/05 07:06:26;;;;;;;3.42;2.42;;;17.30;99.90;;;;;;5066922;28;20039;-52
2022/07/05 07:11:36;;;;;;;6.25;2.88;;;17.40;99.90;;;;;;5071367;28;20479;-51
2022/07/05 07:14:02;;;;;;;2.97;2.33;;;17.40;99.90;;;;;;5076157;28;20028;-52
2022/07/05 07:16:27;;;;;;;3.75;2.40;;;17.50;99.90;;;;;;5080336;28;20071;-50
2022/07/05 07:18:53;;;;;;;4.40;2.20;;;17.50;99.90;;;;;;5084001;28;20527;-53
2022/07/05 07:21:19;;;;;;;3.70;2.85;;;17.60;99.90;;;;;;5084625;28;20024;-49
2022/07/05 07:23:44;;;;;;;5.43;2.70;;;17.60;99.90;;;;;;5081589;28;20086;-47
2022/07/05 07:26:10;;;;;;;5.78;1.83;;;17.70;99.90;;;;;;5077435;28;20426;-46
2022/07/05 07:28:35;;;;;;;3.67;2.03;;;17.70;99.90;;;;;;5083807;28;20048;-51
2022/07/05 07:31:01;;;;;;;6.35;2.90;;;17.80;99.90;;;;;;5083793;28;20097;-55
2022/07/05 07:33:27;;;;;;;3.95;2.53;;;17.80;99.90;;;;;;5083236;28;20085;-51
2022/07/05 07:35:53;;;;;;;3.25;1.85;;;17.90;99.90;;;;;;5081631;28;20500;-49
2022/07/05 07:38:18;;;;;;;4.10;2.20;;;17.90;99.90;;;;;;5084180;28;20042;-50
2022/07/05 07:40:44;;;;;;;14.90;2.58;;;18.00;99.90;;;;;;5082983;28;20024;-52
2022/07/05 07:43:09;;;;;;;5.25;1.60;;;18.00;99.90;;;;;;5081555;28;20036;-51
2022/07/05 07:45:35;;;;;;;3.40;1.45;;;18.10;99.90;;;;;;5083415;28;20047;-47
2022/07/05 07:48:00;;;;;;;4.95;1.75;;;18.20;99.90;;;;;;5075487;28;20606;-47
2022/07/05 07:50:26;;;;;;;2.05;1.23;;;18.20;99.90;;;;;;5077691;28;20039;-56
2022/07/05 07:52:52;;;;;;;3.53;1.13;;;18.30;99.90;;;;;;5068600;28;20061;-52
2022/07/05 07:55:17;;;;;;;2.33;0.60;;;18.30;99.90;;;;;;5077615;28;20031;-53
2022/07/05 07:57:43;;;;;;;1.65;0.70;;;18.40;99.90;;;;;;5065424;28;20109;-47
2022/07/05 08:00:09;;;;;;;1.60;0.50;;;18.50;99.90;;;;;;5067999;28;20033;-49
2022/07/05 08:02:34;;;;;;;2.65;1.05;;;18.60;99.90;;;;;;5079807;28;20092;-52
2022/07/05 08:05:00;;;;;;;7.35;1.48;;;18.60;99.90;;;;;;5081610;28;20485;-51
2022/07/05 08:07:25;;;;;;;2.03;1.05;;;18.60;99.90;;;;;;5068149;28;20436;-52
2022/07/05 08:09:52;;;;;;;6.13;1.00;;;18.70;99.90;;;;;;5082723;28;20469;-47
2022/07/05 08:12:18;;;;;;;2.72;0.85;;;18.70;99.90;;;;;;5072000;28;20452;-50
2022/07/05 08:14:46;;;;;;;3.20;0.80;;;18.80;99.90;;;;;;5071515;28;20044;-47
2022/07/05 08:17:12;;;;;;;2.55;0.80;;;18.80;99.90;;;;;;5075864;28;20032;-51
2022/07/05 08:22:23;;;;;;;4.63;0.63;;;19.00;99.90;;;;;;5065809;28;20087;-49
2022/07/05 08:24:49;;;;;;;1.77;0.30;;;19.10;99.90;;;;;;5072929;28;20422;-55
2022/07/05 08:27:16;;;;;;;3.38;0.40;;;19.10;99.90;;;;;;5071898;28;20055;-51
2022/07/05 08:29:41;;;;;;;;;;;19.10;99.90;;;;;;5073722;28;20128;-48
2022/07/05 08:32:08;;;;;;;5.68;0.73;;;19.10;99.90;;;;;;5075822;28;19999;-56
2022/07/05 08:34:34;;;;;;;2.40;0.63;;;19.20;99.90;;;;;;5082792;28;20062;-53
2022/07/05 08:37:00;;;;;;;2.75;0.50;;;19.30;99.90;;;;;;5082298;28;20044;-51
2022/07/05 08:39:26;;;;;;;1.92;0.52;;;19.30;99.90;;;;;;5074836;28;20024;-47
2022/07/05 08:41:52;;;;;;;1.83;0.40;;;19.30;99.90;;;;;;5079562;28;20033;-54
2022/07/05 08:44:22;;;;;;;2.55;0.40;;;19.20;99.90;;;;;;5074878;28;20028;-51
2022/07/05 08:46:51;;;;;;;5.90;0.60;;;19.10;99.90;;;;;;5072382;28;20040;-48
2022/07/05 08:49:22;;;;;;;5.88;0.90;;;19.10;99.90;;;;;;5070236;28;20088;-51
2022/07/05 08:51:48;;;;;;;4.03;0.30;;;19.00;99.90;;;;;;5073206;28;20036;-50
2022/07/05 08:54:15;;;;;;;3.97;0.70;;;19.10;99.90;;;;;;5074974;28;20032;-51
2022/07/05 08:56:42;;;;;;;2.78;0.50;;;19.10;99.90;;;;;;5071279;28;20047;-50
2022/07/05 08:59:07;;;;;;;2.05;0.60;;;19.20;99.90;;;;;;5069150;28;20032;-52
2022/07/05 09:01:34;;;;;;;3.35;0.30;;;19.30;99.90;;;;;;5066393;28;20041;-53
2022/07/05 09:04:10;;;;;;;3.60;0.20;;;19.20;99.90;;;;;;5069797;28;20170;-48
2022/07/05 09:06:38;;;;;;;1.40;0.30;;;19.20;99.70;;;;;;5067125;28;20050;-54
2022/07/05 09:09:05;;;;;;;1.85;0.50;;;19.20;99.90;;;;;;5070300;28;20040;-52
2022/07/05 09:11:39;;;;;;;4.80;0.60;;;19.30;99.90;;;;;;5073954;28;20047;-50
2022/07/05 09:14:18;;;;;;;1.52;0.40;;;19.30;99.90;;;;;;5072526;28;20503;-54
2022/07/05 09:16:44;;;;;;;1.63;0.32;;;19.40;99.90;;;;;;5069251;28;20552;-49
2022/07/05 09:19:09;;;;;;;3.10;0.50;;;19.30;99.90;;;;;;5074105;28;20339;-51
2022/07/05 09:21:36;;;;;;;2.88;0.57;;;19.30;99.90;;;;;;5075373;28;20086;-53
2022/07/05 09:24:07;;;;;;;1.02;0.30;;;19.30;99.90;;;;;;5073277;28;20036;-49
2022/07/05 09:26:35;;;;;;;3.85;0.50;;;19.30;99.90;;;;;;5081945;28;20045;-48
2022/07/05 09:29:03;;;;;;;2.10;0.20;;;19.30;99.70;;;;;;5080230;28;20052;-51
2022/07/05 09:31:35;;;;;;;5.03;0.85;;;19.30;99.40;;;;;;5073726;28;20048;-52
2022/07/05 09:34:06;;;;;;;3.08;0.20;;;19.40;99.50;;;;;;5072605;28;20500;-51
2022/07/05 09:36:49;;;;;;;3.67;0.40;;;19.30;99.60;;;;;;5074973;28;20040;-52
2022/07/05 09:39:15;;;;;;;3.28;0.28;;;19.30;99.70;;;;;;5072416;28;20040;-54
2022/07/05 09:41:41;;;;;;;1.83;0.30;;;19.30;99.90;;;;;;5070755;28;20687;-53
2022/07/05 09:44:50;;;;;;;1.10;0.30;;;19.30;99.90;;;;;;5073728;28;20037;-52
2022/07/05 09:50:39;;;;;;;2.17;0.38;;;19.60;99.90;;;;;;5078895;28;20074;-50
2022/07/05 09:53:23;;;;;;;5.45;0.20;;;19.70;99.50;;;;;;5077300;28;20048;-47
2022/07/05 09:56:01;;;;;;;2.50;0.40;;;19.60;99.70;;;;;;5073958;28;20039;-51
2022/07/05 09:58:27;;;;;;;1.13;0.45;;;19.50;99.20;;;;;;5067428;28;20557;-53
2022/07/05 10:01:28;;;;;;;3.00;0.28;;;19.50;99.80;;;;;;5071385;28;20503;-55
2022/07/05 10:07:48;;;;;;;1.38;0.20;;;19.30;99.50;;;;;;5067537;28;20071;-55
2022/07/05 10:17:13;;;;;;;1.45;0.35;;;19.50;99.70;;;;;;5075886;28;20485;-51
2022/07/05 10:19:41;;;;;;;4.25;0.60;;;19.70;99.20;;;;;;5079080;28;20119;-47
2022/07/05 10:22:06;;;;;;;0.85;0.30;;;19.80;98.60;;;;;;5068752;28;20040;-51
2022/07/05 10:24:35;;;;;;;2.22;0.30;;;19.80;98.70;;;;;;5072064;28;20425;-54
2022/07/05 10:27:04;;;;;;;2.28;0.43;;;19.80;98.60;;;;;;5074523;28;20119;-51
2022/07/05 10:29:30;;;;;;;3.85;0.40;;;19.70;98.40;;;;;;5078002;28;20040;-50
2022/07/05 10:31:56;;;;;;;;;;;19.60;98.30;;;;;;5073828;28;20040;-50
2022/07/05 10:34:22;;;;;;;3.03;0.30;;;19.60;98.70;;;;;;5070572;28;19923;-54
2022/07/05 10:36:48;;;;;;;;;;;19.60;99.10;;;;;;5077314;28;20028;-51
2022/07/05 10:39:14;;;;;;;2.53;0.20;;;19.70;98.40;;;;;;5077083;28;19919;-49
2022/07/05 10:41:41;;;;;;;9.82;0.40;;;19.80;98.70;;;;;;5079271;28;20378;-52
2022/07/05 10:44:07;;;;;;;2.75;0.20;;;19.80;98.20;;;;;;5078690;28;20406;-56
2022/07/05 10:46:33;;;;;;;;;;;19.90;98.50;;;;;;5075089;28;20044;-53
2022/07/05 10:49:20;;;;;;;2.78;0.30;;;19.90;97.90;;;;;;5078358;28;19916;-53
2022/07/05 10:51:46;;;;;;;1.55;0.20;;;20.10;98.30;;;;;;5081405;28;20048;-49
2022/07/05 10:54:12;;;;;;;0.80;0.20;;;20.20;98.50;;;;;;5078026;28;20328;-50
2022/07/05 10:56:39;;;;;;;2.38;0.20;;;20.40;98.20;;;;;;5074046;28;20066;-51
2022/07/05 10:59:09;;;;;;;4.60;0.20;;;20.60;97.60;;;;;;5075330;28;20498;-55
2022/07/05 11:01:36;;;;;;;1.65;0.28;;;20.60;97.50;;;;;;5077376;28;20036;-47
2022/07/05 11:04:02;;;;;;;0.98;0.28;;;20.70;97.60;;;;;;5075729;28;20312;-50
2022/07/05 11:06:39;;;;;;;2.30;0.60;;;20.80;96.80;;;;;;5082559;28;20484;-53
2022/07/05 11:09:11;;;;;;;2.60;0.20;;;20.60;95.70;;;;;;5084066;28;20044;-50
2022/07/05 11:11:37;;;;;;;4.88;1.35;;;20.50;95.80;;;;;;5083628;28;20093;-52
2022/07/05 11:14:37;;;;;;;1.45;0.50;;;20.40;95.70;;;;;;5084645;28;20032;-53
2022/07/05 11:17:09;;;;;;;1.23;0.30;;;20.30;96.50;;;;;;5022150;28;20192;-48
2022/07/05 11:19:55;;;;;;;6.60;0.20;;;20.30;96.70;;;;;;5021746;28;20588;-52
2022/07/05 11:22:20;;;;;;;1.67;0.35;;;20.30;96.00;;;;;;5020967;28;20057;-54
2022/07/05 11:24:46;;;;;;;1.17;0.30;;;20.30;96.50;;;;;;5019849;28;20487;-53
2022/07/05 11:27:12;;;;;;;3.17;0.40;;;20.30;96.20;;;;;;5020194;28;20041;-50
2022/07/05 11:29:55;;;;;;;1.70;0.35;;;20.40;97.10;;;;;;5016269;28;20546;-51
2022/07/05 11:32:30;;;;;;;3.45;0.52;;;20.50;96.70;;;;;;5014639;28;20041;-54
2022/07/05 11:35:18;;;;;;;2.58;0.50;;;20.60;96.70;;;;;;5020632;28;20119;-51
2022/07/05 11:38:03;;;;;;;2.13;0.30;;;20.60;97.00;;;;;;5020831;28;20102;-48
2022/07/05 11:40:31;;;;;;;3.08;0.30;;;20.70;96.90;;;;;;5021507;28;20409;-51
2022/07/05 11:42:58;;;;;;;4.10;0.52;;;20.80;96.90;;;;;;5018609;28;20045;-53
2022/07/05 11:45:24;;;;;;;4.45;0.70;;;20.90;96.80;;;;;;5019317;28;20088;-53
2022/07/05 11:47:50;;;;;;;;;;;20.90;96.60;;;;;;5021559;28;20451;-55
2022/07/05 11:50:16;;;;;;;3.47;0.52;;;21.00;97.40;;;;;;5021151;28;20004;-51
2022/07/05 11:52:42;;;;;;;;;;;21.10;97.60;;;;;;5052563;28;21046;-55
2022/07/05 11:55:09;;;;;;;0.70;0.30;;;21.20;96.00;;;;;;5072343;28;19920;-48
2022/07/05 11:57:36;;;;;;;3.08;0.60;;;21.20;96.10;;;;;;5079261;28;20128;-54
2022/07/05 12:00:04;;;;;;;4.60;0.70;;;21.10;96.50;;;;;;5078556;28;20100;-51
2022/07/05 12:02:30;;;;;;;2.75;0.80;;;21.10;96.80;;;;;;5070044;28;20042;-49
2022/07/05 12:04:56;;;;;;;;;;;21.00;96.60;;;;;;5083750;28;20119;-49
2022/07/05 12:07:30;;;;;;;3.45;0.47;;;21.00;97.00;;;;;;5076821;28;19923;-51
2022/07/05 12:12:43;;;;;;;2.97;0.50;;;20.90;96.50;;;;;;5074460;28;20045;-48
2022/07/05 12:15:11;;;;;;;5.53;0.60;;;20.70;96.80;;;;;;5075810;28;20058;-54
2022/07/05 12:17:39;;;;;;;3.90;0.63;;;20.60;96.40;;;;;;5081429;28;20032;-54
2022/07/05 12:20:05;;;;;;;3.15;0.70;;;20.50;96.80;;;;;;5072774;28;20128;-49
2022/07/05 12:22:33;;;;;;;4.82;0.40;;;20.30;96.10;;;;;;5080505;28;20096;-51
2022/07/05 12:25:01;;;;;;;2.65;0.40;;;20.30;96.00;;;;;;5078500;28;20555;-53
2022/07/05 12:27:28;;;;;;;3.45;0.73;;;20.20;96.20;;;;;;5070592;28;20032;-49
2022/07/05 12:29:54;;;;;;;2.75;0.75;;;20.30;96.10;;;;;;5068605;28;20048;-51
2022/07/05 12:32:20;;;;;;;1.15;0.60;;;20.30;96.50;;;;;;5074037;28;20047;-50
2022/07/05 12:34:46;;;;;;;;;;;20.40;96.90;;;;;;5073098;28;20032;-48
2022/07/05 12:37:20;;;;;;;2.30;0.40;;;20.50;96.40;;;;;;5071440;28;19962;-48
2022/07/05 12:39:47;;;;;;;4.38;0.30;;;20.60;96.50;;;;;;5072210;28;20444;-52
2022/07/05 12:42:33;;;;;;;2.95;0.30;;;20.70;96.10;;;;;;5071059;28;20413;-49
2022/07/05 12:45:09;;;;;;;2.83;0.30;;;20.70;95.60;;;;;;5072565;28;20040;-51
2022/07/05 12:47:55;;;;;;;4.68;0.85;;;20.80;95.50;;;;;;5070626;28;20778;-53
2022/07/05 12:50:28;;;;;;;2.67;0.40;;;20.90;94.60;;;;;;5072359;28;20512;-53
2022/07/05 12:52:54;;;;;;;2.08;0.35;;;20.90;95.70;;;;;;5076700;28;20035;-48
2022/07/05 12:58:05;;;;;;;2.55;0.40;;;20.90;95.50;;;;;;5079511;28;20036;-49
2022/07/05 13:00:30;;;;;;;;;;;20.90;95.40;;;;;;5076301;28;20040;-50
2022/07/05 13:02:56;;;;;;;1.45;0.30;;;20.90;95.70;;;;;;5076167;28;20393;-53
2022/07/05 13:05:22;;;;;;;;;;;20.90;94.80;;;;;;5079472;28;20122;-53
2022/07/05 13:07:48;;;;;;;2.80;0.40;;;20.90;94.40;;;;;;5073892;28;19924;-51
2022/07/05 13:10:15;;;;;;;;;;;20.80;94.50;;;;;;5076563;28;20048;-55
2022/07/05 13:12:40;;;;;;;4.55;0.40;;;20.80;94.30;;;;;;5078007;28;19921;-52
2022/07/05 13:15:06;;;;;;;;;;;20.80;94.30;;;;;;5076974;28;20412;-49
2022/07/05 13:17:32;;;;;;;1.85;0.28;;;20.70;93.20;;;;;;5076611;28;20269;-48